Time;durP1;ratioP1;P1;durP2;ratioP2;P2;SDS_P1;SDS_P2;PMS_P1;PMS_P2;Temp;Humidity;BMP_temperature;BMP_pressure;BME280_temperature;BME280_humidity;BME280_pressure;Samples;Min_cycle;Max_cycle;Signal;HPM_P1;HPM_P2
2022/03/15 00:00:53;;;;;;;44.53;21.30;;;0.30;99.90;;;;;;5051839;28;20206;-65
2022/03/15 00:03:21;;;;;;;43.87;21.07;;;0.30;99.90;;;;;;5051758;28;20213;-66
2022/03/15 00:05:50;;;;;;;42.27;20.00;;;0.30;99.90;;;;;;5052207;28;20205;-68
2022/03/15 00:08:19;;;;;;;41.33;20.03;;;0.30;99.90;;;;;;5052001;28;20205;-66
2022/03/15 00:10:48;;;;;;;44.40;20.70;;;0.30;99.90;;;;;;5051639;28;20225;-65
2022/03/15 00:13:15;;;;;;;40.37;19.33;;;0.20;99.90;;;;;;5051926;28;20233;-66
2022/03/15 00:15:43;;;;;;;37.50;19.43;;;0.20;99.90;;;;;;5051919;28;20205;-67
2022/03/15 00:18:10;;;;;;;37.03;19.37;;;0.20;99.90;;;;;;5051668;28;20581;-66
2022/03/15 00:20:38;;;;;;;50.00;23.53;;;0.20;99.90;;;;;;5051906;28;20255;-66
2022/03/15 00:23:06;;;;;;;50.83;25.33;;;0.20;99.90;;;;;;5051629;28;20205;-66
2022/03/15 00:25:34;;;;;;;58.40;30.80;;;0.20;99.90;;;;;;5051812;28;20360;-66
2022/03/15 00:28:01;;;;;;;64.73;32.53;;;0.20;99.90;;;;;;5051493;28;20233;-66
2022/03/15 00:30:28;;;;;;;59.87;30.73;;;0.20;99.90;;;;;;5051290;28;20229;-66
2022/03/15 00:32:55;;;;;;;58.33;30.47;;;0.20;99.90;;;;;;5051818;28;20235;-66
2022/03/15 00:35:25;;;;;;;53.47;29.40;;;0.20;99.90;;;;;;5051719;28;20571;-65
2022/03/15 00:37:54;;;;;;;50.83;27.53;;;0.20;99.90;;;;;;5051631;28;20240;-66
2022/03/15 00:40:24;;;;;;;53.27;26.43;;;0.20;99.90;;;;;;5051382;28;20204;-66
2022/03/15 00:42:52;;;;;;;47.93;23.70;;;0.20;99.90;;;;;;5051817;28;20642;-65
2022/03/15 00:45:22;;;;;;;45.57;23.70;;;0.20;99.90;;;;;;5051281;28;20216;-66
2022/03/15 00:47:50;;;;;;;42.83;22.00;;;0.10;99.90;;;;;;5051467;28;20289;-66
2022/03/15 00:50:17;;;;;;;41.87;21.20;;;0.10;99.90;;;;;;5053887;28;20559;-65
2022/03/15 00:52:44;;;;;;;44.17;20.47;;;0.00;99.90;;;;;;5055468;28;20205;-66
2022/03/15 00:55:12;;;;;;;43.00;19.30;;;0.00;99.90;;;;;;5055257;28;20209;-66
2022/03/15 00:57:40;;;;;;;41.93;19.83;;;0.10;99.90;;;;;;5055308;28;20220;-66
2022/03/15 01:00:12;;;;;;;40.10;19.23;;;0.10;99.90;;;;;;5055146;28;20210;-65
2022/03/15 01:02:40;;;;;;;40.27;18.70;;;0.00;99.90;;;;;;5055616;28;20197;-65
2022/03/15 01:05:07;;;;;;;38.37;18.43;;;0.10;99.90;;;;;;5055407;28;20205;-66
2022/03/15 01:07:34;;;;;;;40.77;18.50;;;0.10;99.90;;;;;;5055731;28;20670;-66
2022/03/15 01:10:02;;;;;;;34.20;18.07;;;0.10;99.90;;;;;;5055286;28;20580;-67
2022/03/15 01:12:29;;;;;;;40.97;19.57;;;0.10;99.90;;;;;;5054941;28;20205;-66
2022/03/15 01:14:57;;;;;;;34.50;17.63;;;0.10;99.90;;;;;;5055112;28;20202;-66
2022/03/15 01:17:25;;;;;;;32.63;17.23;;;0.10;99.90;;;;;;5055148;28;20569;-66
2022/03/15 01:19:52;;;;;;;33.33;16.90;;;0.10;99.90;;;;;;5055179;28;20208;-66
2022/03/15 01:22:19;;;;;;;31.23;17.27;;;0.10;99.90;;;;;;5054714;28;20236;-66
2022/03/15 01:24:46;;;;;;;36.30;17.50;;;0.10;99.90;;;;;;5055165;28;20201;-67
2022/03/15 01:27:15;;;;;;;36.00;17.70;;;0.10;99.90;;;;;;5054611;28;20320;-66
2022/03/15 01:29:43;;;;;;;34.60;18.13;;;0.10;99.90;;;;;;5054998;28;20209;-67
2022/03/15 01:32:11;;;;;;;36.50;18.27;;;0.10;99.90;;;;;;5054756;28;20205;-66
2022/03/15 01:34:38;;;;;;;33.43;17.13;;;0.10;99.90;;;;;;5054912;28;20263;-66
2022/03/15 01:37:05;;;;;;;35.00;17.67;;;0.10;99.90;;;;;;5054330;28;20484;-65
2022/03/15 01:39:33;;;;;;;33.73;17.17;;;0.10;99.90;;;;;;5054303;28;20237;-65
2022/03/15 01:42:00;;;;;;;30.57;15.70;;;0.10;99.90;;;;;;5054729;28;20229;-65
2022/03/15 01:44:29;;;;;;;32.47;16.53;;;0.10;99.90;;;;;;5054689;28;20586;-66
2022/03/15 01:46:56;;;;;;;31.77;16.53;;;0.10;99.90;;;;;;5054674;28;20584;-66
2022/03/15 01:49:25;;;;;;;34.27;16.83;;;0.10;99.90;;;;;;5054139;28;20201;-65
2022/03/15 01:51:52;;;;;;;31.27;16.73;;;0.10;99.90;;;;;;5054137;28;20226;-66
2022/03/15 01:54:21;;;;;;;31.60;16.60;;;0.00;99.90;;;;;;5054128;28;20258;-65
2022/03/15 01:56:48;;;;;;;34.80;18.13;;;0.00;99.90;;;;;;5054138;28;20209;-65
2022/03/15 01:59:17;;;;;;;36.33;17.83;;;0.00;99.90;;;;;;5053901;28;20220;-66
2022/03/15 02:01:46;;;;;;;35.77;18.63;;;0.00;99.90;;;;;;5053950;28;20216;-65
2022/03/15 02:04:15;;;;;;;43.43;20.57;;;0.00;99.90;;;;;;5053819;28;20207;-66
2022/03/15 02:06:44;;;;;;;44.07;21.83;;;-0.10;99.90;;;;;;5054299;28;20843;-66
2022/03/15 02:09:13;;;;;;;37.80;19.67;;;-0.10;99.90;;;;;;5054071;28;20590;-65
2022/03/15 02:11:41;;;;;;;33.93;17.90;;;-0.10;99.90;;;;;;5053805;28;20225;-65
2022/03/15 02:14:09;;;;;;;31.37;17.47;;;-0.20;99.90;;;;;;5053678;28;20232;-65
2022/03/15 02:16:36;;;;;;;29.50;16.37;;;-0.20;99.90;;;;;;5054376;28;20228;-67
2022/03/15 02:19:04;;;;;;;29.20;15.53;;;-0.20;99.90;;;;;;5053669;28;20216;-66
2022/03/15 02:21:34;;;;;;;29.87;15.60;;;-0.20;99.90;;;;;;5053749;28;20197;-66
2022/03/15 02:24:01;;;;;;;27.97;16.27;;;-0.30;99.90;;;;;;5053779;28;20231;-66
2022/03/15 02:26:28;;;;;;;29.03;15.90;;;-0.30;99.90;;;;;;5053673;28;20212;-66
2022/03/15 02:28:55;;;;;;;31.43;16.63;;;-0.30;99.90;;;;;;5053328;28;20226;-66
2022/03/15 02:31:23;;;;;;;37.57;15.47;;;-0.30;99.90;;;;;;5053564;28;20225;-66
2022/03/15 02:33:50;;;;;;;28.47;14.53;;;-0.30;99.90;;;;;;5053491;28;20205;-65
2022/03/15 02:36:17;;;;;;;31.50;14.60;;;-0.30;99.90;;;;;;5053281;28;20220;-66
2022/03/15 02:38:47;;;;;;;29.60;15.57;;;-0.30;99.90;;;;;;5053222;28;20269;-66
2022/03/15 02:41:15;;;;;;;26.60;14.63;;;-0.30;99.90;;;;;;5053238;28;20202;-66
2022/03/15 02:43:43;;;;;;;26.70;13.73;;;-0.30;99.90;;;;;;5053643;28;20563;-66
2022/03/15 02:46:11;;;;;;;28.57;15.23;;;-0.30;99.90;;;;;;5053120;28;20274;-65
2022/03/15 02:48:38;;;;;;;33.23;14.63;;;-0.30;99.90;;;;;;5053466;28;20235;-66
2022/03/15 02:51:09;;;;;;;27.73;14.27;;;-0.30;99.90;;;;;;5052913;28;20225;-65
2022/03/15 02:53:37;;;;;;;33.33;16.13;;;-0.40;99.90;;;;;;5053264;28;20197;-65
2022/03/15 02:56:10;;;;;;;30.27;15.10;;;-0.30;99.90;;;;;;5053008;28;20217;-66
2022/03/15 02:58:37;;;;;;;29.47;14.37;;;-0.30;99.90;;;;;;5053372;28;20193;-67
2022/03/15 03:01:04;;;;;;;26.27;13.90;;;-0.30;99.90;;;;;;5053186;28;20198;-65
2022/03/15 03:03:32;;;;;;;26.07;14.10;;;-0.30;99.90;;;;;;5053293;28;20216;-67
2022/03/15 03:05:59;;;;;;;28.40;14.90;;;-0.30;99.90;;;;;;5053347;28;20205;-66
2022/03/15 03:08:27;;;;;;;27.10;13.87;;;-0.30;99.90;;;;;;5052923;28;20213;-66
2022/03/15 03:10:55;;;;;;;25.23;14.50;;;-0.30;99.90;;;;;;5053004;28;20763;-66
2022/03/15 03:13:26;;;;;;;22.30;13.17;;;-0.40;99.90;;;;;;5052229;28;20599;-65
2022/03/15 03:15:55;;;;;;;34.07;13.77;;;-0.30;99.90;;;;;;5052973;28;20193;-65
2022/03/15 03:18:22;;;;;;;26.87;14.93;;;-0.30;99.90;;;;;;5052766;28;20482;-66
2022/03/15 03:20:51;;;;;;;25.60;14.33;;;-0.30;99.90;;;;;;5052891;28;20201;-66
2022/03/15 03:23:18;;;;;;;28.93;14.07;;;-0.30;99.90;;;;;;5052973;28;20671;-66
2022/03/15 03:25:46;;;;;;;24.03;13.50;;;-0.40;99.90;;;;;;5052652;28;20248;-66
2022/03/15 03:28:14;;;;;;;25.73;13.63;;;-0.30;99.90;;;;;;5052800;28;20225;-67
2022/03/15 03:30:47;;;;;;;27.57;14.90;;;-0.30;99.90;;;;;;5052728;28;20630;-65
2022/03/15 03:33:16;;;;;;;25.47;14.17;;;-0.30;99.90;;;;;;5052901;28;20236;-66
2022/03/15 03:35:43;;;;;;;27.93;14.77;;;-0.40;99.90;;;;;;5052703;28;20228;-66
2022/03/15 03:38:11;;;;;;;26.10;14.17;;;-0.40;99.90;;;;;;5052176;28;20242;-67
2022/03/15 03:40:38;;;;;;;25.43;13.83;;;-0.40;99.90;;;;;;5052676;28;20554;-66
2022/03/15 03:43:06;;;;;;;25.30;14.07;;;-0.40;99.90;;;;;;5052412;28;20205;-65
2022/03/15 03:45:34;;;;;;;26.60;14.70;;;-0.40;99.90;;;;;;5052695;28;20264;-67
2022/03/15 03:48:04;;;;;;;27.40;14.23;;;-0.40;99.90;;;;;;5052475;28;20205;-65
2022/03/15 03:50:32;;;;;;;23.77;13.77;;;-0.40;99.90;;;;;;5052774;28;20202;-65
2022/03/15 03:52:59;;;;;;;26.37;14.60;;;-0.40;99.90;;;;;;5052022;28;20213;-67
2022/03/15 03:55:27;;;;;;;29.10;14.47;;;-0.40;99.90;;;;;;5052177;28;20205;-66
2022/03/15 03:57:54;;;;;;;27.13;14.67;;;-0.40;99.90;;;;;;5051982;28;20259;-66
2022/03/15 04:00:21;;;;;;;25.13;14.10;;;-0.40;99.90;;;;;;5052388;28;20201;-66
2022/03/15 04:02:48;;;;;;;27.23;14.73;;;-0.40;99.90;;;;;;5052140;28;20288;-65
2022/03/15 04:05:17;;;;;;;24.07;14.60;;;-0.50;99.90;;;;;;5051937;28;20212;-65
2022/03/15 04:07:45;;;;;;;24.87;13.83;;;-0.50;99.90;;;;;;5051808;28;20212;-66
2022/03/15 04:10:12;;;;;;;28.93;15.50;;;-0.50;99.90;;;;;;5051904;28;20209;-65
2022/03/15 04:12:40;;;;;;;27.93;14.63;;;-0.50;99.90;;;;;;5051677;28;20221;-66
2022/03/15 04:15:08;;;;;;;25.57;14.30;;;-0.50;99.90;;;;;;5051890;28;20211;-67
2022/03/15 04:17:35;;;;;;;25.97;14.20;;;-0.60;99.90;;;;;;5052104;28;20205;-67
2022/03/15 04:20:03;;;;;;;27.03;14.47;;;-0.50;99.90;;;;;;5051840;28;20231;-65
2022/03/15 04:22:32;;;;;;;26.80;14.90;;;-0.60;99.90;;;;;;5052130;28;20201;-66
2022/03/15 04:24:59;;;;;;;26.00;14.30;;;-0.60;99.90;;;;;;5051315;28;20209;-65
2022/03/15 04:27:26;;;;;;;25.70;14.00;;;-0.60;99.90;;;;;;5051622;28;20245;-66
2022/03/15 04:29:53;;;;;;;25.83;13.90;;;-0.70;99.90;;;;;;5051722;28;20204;-66
2022/03/15 04:32:20;;;;;;;26.93;14.40;;;-0.70;99.90;;;;;;5051581;28;20225;-66
2022/03/15 04:34:47;;;;;;;24.27;14.20;;;-0.80;99.90;;;;;;5051438;28;20243;-65
2022/03/15 04:37:15;;;;;;;28.27;14.43;;;-0.80;99.90;;;;;;5051506;28;20208;-65
2022/03/15 04:39:43;;;;;;;27.20;14.07;;;-0.80;99.90;;;;;;5051315;28;20766;-66
2022/03/15 04:42:11;;;;;;;29.07;14.90;;;-0.70;99.90;;;;;;5051817;28;20228;-65
2022/03/15 04:44:38;;;;;;;21.40;13.63;;;-0.70;99.90;;;;;;5051738;28;20617;-67
2022/03/15 04:47:06;;;;;;;24.13;13.73;;;-0.70;99.90;;;;;;5051538;28;20206;-67
2022/03/15 04:49:34;;;;;;;23.27;13.70;;;-0.70;99.90;;;;;;5051389;28;20212;-65
2022/03/15 04:52:02;;;;;;;25.07;14.40;;;-0.70;99.90;;;;;;5051301;28;20221;-65
2022/03/15 04:54:29;;;;;;;22.93;14.03;;;-0.70;99.90;;;;;;5051436;28;20244;-66
2022/03/15 04:56:58;;;;;;;26.30;14.50;;;-0.70;99.90;;;;;;5051232;28;20209;-66
2022/03/15 04:59:25;;;;;;;28.10;14.17;;;-0.70;99.90;;;;;;5051378;28;20216;-66
2022/03/15 05:01:52;;;;;;;25.57;13.97;;;-0.60;99.90;;;;;;5051317;28;20205;-66
2022/03/15 05:04:19;;;;;;;25.70;13.63;;;-0.60;99.90;;;;;;5051336;28;20211;-66
2022/03/15 05:06:46;;;;;;;29.93;15.30;;;-0.60;99.90;;;;;;5051422;28;20663;-66
2022/03/15 05:09:13;;;;;;;26.53;14.63;;;-0.60;99.90;;;;;;5051495;28;20205;-66
2022/03/15 05:11:44;;;;;;;29.27;15.27;;;-0.60;99.90;;;;;;5051015;28;20233;-65
2022/03/15 05:14:12;;;;;;;26.57;14.77;;;-0.50;99.90;;;;;;5051444;28;20558;-65
2022/03/15 05:16:39;;;;;;;32.73;15.77;;;-0.50;99.90;;;;;;5050984;28;20213;-65
2022/03/15 05:19:07;;;;;;;28.17;15.00;;;-0.40;99.90;;;;;;5051477;28;20213;-65
2022/03/15 05:21:34;;;;;;;30.53;15.53;;;-0.40;99.90;;;;;;5051165;28;20197;-66
2022/03/15 05:24:01;;;;;;;31.57;15.10;;;-0.30;99.90;;;;;;5051037;28;20213;-66
2022/03/15 05:26:28;;;;;;;28.90;14.97;;;-0.30;99.90;;;;;;5050955;28;20224;-66
2022/03/15 05:28:55;;;;;;;28.60;15.60;;;-0.20;99.90;;;;;;5050944;28;20381;-66
2022/03/15 05:31:26;;;;;;;28.00;15.43;;;-0.10;99.90;;;;;;5051303;28;20498;-66
2022/03/15 05:33:54;;;;;;;32.77;16.87;;;0.00;99.90;;;;;;5051251;28;20643;-65
2022/03/15 05:36:21;;;;;;;28.20;15.27;;;0.00;99.90;;;;;;5053131;28;20213;-66
2022/03/15 05:38:48;;;;;;;31.17;15.53;;;0.10;99.90;;;;;;5054413;28;20595;-65
2022/03/15 05:41:15;;;;;;;35.23;17.87;;;0.10;99.90;;;;;;5054536;28;20225;-66
2022/03/15 05:43:42;;;;;;;36.53;19.30;;;0.20;99.90;;;;;;5054596;28;20293;-65
2022/03/15 05:46:09;;;;;;;36.50;19.20;;;0.20;99.90;;;;;;5054719;28;20296;-66
2022/03/15 05:48:38;;;;;;;34.90;18.43;;;0.30;99.90;;;;;;5054213;28;20216;-65
2022/03/15 05:51:05;;;;;;;40.47;19.13;;;0.30;99.90;;;;;;5054475;28;20213;-66
2022/03/15 05:53:32;;;;;;;40.07;18.93;;;0.40;99.90;;;;;;5054153;28;20212;-65
2022/03/15 05:55:59;;;;;;;38.67;18.40;;;0.50;99.90;;;;;;5054235;28;20213;-66
2022/03/15 05:58:26;;;;;;;38.50;18.53;;;0.50;99.90;;;;;;5054360;28;20205;-66
2022/03/15 06:00:55;;;;;;;35.13;17.03;;;0.60;99.90;;;;;;5053962;28;20315;-67
2022/03/15 06:03:23;;;;;;;32.80;17.03;;;0.60;99.90;;;;;;5054289;28;20228;-66
2022/03/15 06:05:53;;;;;;;39.23;17.43;;;0.70;99.90;;;;;;5054062;28;20426;-65
2022/03/15 06:08:21;;;;;;;36.00;16.87;;;0.80;99.90;;;;;;5054122;28;20273;-65
2022/03/15 06:10:48;;;;;;;32.07;17.13;;;0.80;99.90;;;;;;5054098;28;20667;-66
2022/03/15 06:13:15;;;;;;;32.83;16.50;;;0.90;99.90;;;;;;5053999;28;20225;-65
2022/03/15 06:15:42;;;;;;;28.60;15.93;;;1.00;99.90;;;;;;5054101;28;20201;-66
2022/03/15 06:18:10;;;;;;;31.27;16.20;;;1.00;99.90;;;;;;5053915;28;20212;-66
2022/03/15 06:20:37;;;;;;;33.77;17.07;;;1.10;99.90;;;;;;5054028;28;20220;-66
2022/03/15 06:23:06;;;;;;;24.80;14.37;;;1.20;99.90;;;;;;5053703;28;20208;-65
2022/03/15 06:25:34;;;;;;;27.00;15.03;;;1.30;99.90;;;;;;5053469;28;20231;-66
2022/03/15 06:28:01;;;;;;;23.53;14.10;;;1.40;99.90;;;;;;5053618;28;20229;-65
2022/03/15 06:30:29;;;;;;;26.83;14.27;;;1.50;99.90;;;;;;5053801;28;20615;-68
2022/03/15 06:32:56;;;;;;;30.30;15.97;;;1.60;99.90;;;;;;5053489;28;20387;-66
2022/03/15 06:35:23;;;;;;;30.97;16.73;;;1.60;99.90;;;;;;5053673;28;20212;-66
2022/03/15 06:37:51;;;;;;;35.77;17.07;;;1.70;99.90;;;;;;5053659;28;20295;-66
2022/03/15 06:40:24;;;;;;;34.20;17.40;;;1.80;99.90;;;;;;5053719;28;20576;-64
2022/03/15 06:42:51;;;;;;;34.43;16.93;;;1.90;99.90;;;;;;5053363;28;20232;-65
2022/03/15 06:45:19;;;;;;;27.37;15.93;;;2.00;99.90;;;;;;5053263;28;20209;-65
2022/03/15 06:47:46;;;;;;;35.20;16.47;;;2.10;99.90;;;;;;5053262;28;20213;-67
2022/03/15 06:50:14;;;;;;;30.67;16.73;;;2.20;99.90;;;;;;5053491;28;20202;-65
2022/03/15 06:52:41;;;;;;;34.03;17.13;;;2.30;99.90;;;;;;5052996;28;20221;-65
2022/03/15 06:55:10;;;;;;;34.53;17.90;;;2.40;99.90;;;;;;5053389;28;20540;-65
2022/03/15 06:57:39;;;;;;;33.93;17.33;;;2.50;99.90;;;;;;5053181;28;20660;-65
2022/03/15 07:00:08;;;;;;;32.00;17.33;;;2.50;99.90;;;;;;5053295;28;20267;-66
2022/03/15 07:02:35;;;;;;;36.10;17.33;;;2.60;99.90;;;;;;5053078;28;20225;-68
2022/03/15 07:05:03;;;;;;;30.93;17.27;;;2.70;99.90;;;;;;5053434;28;20561;-65
2022/03/15 07:07:31;;;;;;;33.47;17.40;;;2.80;99.90;;;;;;5052949;28;20216;-65
2022/03/15 07:09:58;;;;;;;35.00;17.67;;;2.90;99.90;;;;;;5053492;28;20647;-65
2022/03/15 07:12:25;;;;;;;34.10;15.80;;;3.00;99.90;;;;;;5052674;28;20221;-65
2022/03/15 07:14:54;;;;;;;30.97;16.00;;;3.10;99.90;;;;;;5052618;28;20209;-66
2022/03/15 07:17:21;;;;;;;30.70;16.00;;;3.10;99.90;;;;;;5052911;28;20217;-66
2022/03/15 07:19:48;;;;;;;31.53;17.37;;;3.20;99.90;;;;;;5052623;28;20212;-65
2022/03/15 07:22:16;;;;;;;37.93;17.07;;;3.30;99.90;;;;;;5052757;28;20213;-66
2022/03/15 07:24:43;;;;;;;34.47;16.63;;;3.40;99.90;;;;;;5052558;28;20201;-66
2022/03/15 07:27:10;;;;;;;32.90;16.37;;;3.50;99.90;;;;;;5052335;28;20226;-66
2022/03/15 07:29:37;;;;;;;32.17;16.67;;;3.60;99.90;;;;;;5052638;28;20682;-66
2022/03/15 07:32:07;;;;;;;38.00;18.07;;;3.70;99.90;;;;;;5052374;28;20232;-68
2022/03/15 07:34:34;;;;;;;34.60;17.80;;;3.80;99.90;;;;;;5052285;28;20193;-67
2022/03/15 07:37:01;;;;;;;37.30;18.80;;;3.80;99.90;;;;;;5052545;28;20212;-65
2022/03/15 07:39:28;;;;;;;36.80;18.80;;;3.90;99.90;;;;;;5051999;28;20243;-66
2022/03/15 07:41:56;;;;;;;33.10;16.80;;;4.00;99.90;;;;;;5052281;28;20228;-66
2022/03/15 07:44:23;;;;;;;29.70;15.20;;;4.10;99.90;;;;;;5052472;28;20609;-66
2022/03/15 07:46:50;;;;;;;27.10;14.70;;;4.20;99.90;;;;;;5052102;28;20205;-66
2022/03/15 07:49:20;;;;;;;28.73;14.57;;;4.30;99.90;;;;;;5051955;28;20300;-65
2022/03/15 07:51:48;;;;;;;34.70;15.73;;;4.40;99.90;;;;;;5052340;28;20655;-66
2022/03/15 07:54:15;;;;;;;31.17;15.23;;;4.50;99.90;;;;;;5051936;28;20208;-66
2022/03/15 07:56:43;;;;;;;26.80;14.23;;;4.60;99.90;;;;;;5052215;28;20205;-66
2022/03/15 07:59:10;;;;;;;27.67;13.93;;;4.70;99.90;;;;;;5051657;28;20642;-65
2022/03/15 08:01:38;;;;;;;26.90;13.27;;;4.70;99.90;;;;;;5052099;28;20571;-66
2022/03/15 08:04:05;;;;;;;23.97;13.23;;;4.90;99.90;;;;;;5051822;28;20210;-66
2022/03/15 08:06:35;;;;;;;23.53;13.33;;;5.00;99.90;;;;;;5052004;28;20219;-66
2022/03/15 08:09:03;;;;;;;26.20;13.03;;;5.10;99.90;;;;;;5051774;28;20278;-66
2022/03/15 08:11:30;;;;;;;26.43;14.03;;;5.20;99.90;;;;;;5051969;28;20572;-66
2022/03/15 08:13:58;;;;;;;23.40;12.80;;;5.30;99.90;;;;;;5051718;28;20328;-66
2022/03/15 08:16:26;;;;;;;26.30;13.90;;;5.40;99.90;;;;;;5051497;28;20296;-66
2022/03/15 08:18:54;;;;;;;25.07;13.70;;;5.50;99.90;;;;;;5051720;28;20201;-65
2022/03/15 08:21:22;;;;;;;24.13;13.13;;;5.60;99.90;;;;;;5032798;28;20193;-66
2022/03/15 08:23:51;;;;;;;25.97;12.97;;;5.70;99.90;;;;;;5051965;28;20284;-67
2022/03/15 08:26:19;;;;;;;19.70;11.17;;;5.80;99.90;;;;;;5051384;28;20233;-66
2022/03/15 08:28:48;;;;;;;15.77;9.50;;;6.00;99.90;;;;;;5051510;28;20209;-67
2022/03/15 08:31:15;;;;;;;16.40;9.67;;;6.10;99.90;;;;;;5051677;28;20542;-66
2022/03/15 08:33:44;;;;;;;18.17;9.97;;;6.10;99.90;;;;;;5051774;28;20588;-66
2022/03/15 08:36:11;;;;;;;19.43;9.47;;;6.20;99.90;;;;;;5051737;28;20205;-66
2022/03/15 08:38:39;;;;;;;15.47;9.03;;;6.40;99.90;;;;;;5051507;28;20244;-66
2022/03/15 08:41:08;;;;;;;14.00;8.43;;;6.40;99.90;;;;;;5051440;28;20205;-66
2022/03/15 08:43:36;;;;;;;14.63;8.83;;;6.60;99.90;;;;;;5051798;28;20201;-64
2022/03/15 08:46:03;;;;;;;15.03;9.10;;;6.70;99.90;;;;;;5051763;28;20205;-66
2022/03/15 08:48:30;;;;;;;13.43;8.00;;;6.80;99.90;;;;;;5051696;28;20256;-68
2022/03/15 08:51:00;;;;;;;14.80;8.00;;;6.80;99.90;;;;;;5051475;28;20205;-67
2022/03/15 08:53:27;;;;;;;12.73;7.53;;;6.90;99.90;;;;;;5051119;28;20316;-66
2022/03/15 08:55:55;;;;;;;13.73;8.80;;;7.00;99.90;;;;;;5051341;28;20209;-68
2022/03/15 08:58:23;;;;;;;12.13;7.37;;;7.10;99.90;;;;;;5051164;28;20304;-67
2022/03/15 09:00:52;;;;;;;13.80;8.00;;;7.20;99.90;;;;;;5051151;28;20209;-67
2022/03/15 09:03:19;;;;;;;15.93;8.10;;;7.30;99.90;;;;;;5051053;28;20237;-66
2022/03/15 09:05:46;;;;;;;14.93;7.73;;;7.40;99.90;;;;;;5051402;28;20567;-68
2022/03/15 09:08:13;;;;;;;13.27;7.60;;;7.50;99.90;;;;;;5051166;28;20222;-68
2022/03/15 09:10:47;;;;;;;13.40;7.60;;;7.50;99.90;;;;;;5052801;28;20224;-66
2022/03/15 09:13:14;;;;;;;14.57;8.40;;;7.60;99.90;;;;;;5054716;28;20453;-66
2022/03/15 09:15:43;;;;;;;13.73;8.53;;;7.70;99.90;;;;;;5054919;28;20213;-68
2022/03/15 09:18:10;;;;;;;14.63;7.50;;;7.80;99.90;;;;;;5054881;28;20205;-66
2022/03/15 09:20:38;;;;;;;18.63;8.10;;;7.90;99.90;;;;;;5054952;28;20205;-68
2022/03/15 09:23:06;;;;;;;17.17;8.73;;;7.90;99.90;;;;;;5054679;28;20197;-66
2022/03/15 09:25:34;;;;;;;17.70;9.40;;;7.90;99.90;;;;;;5055159;28;20239;-66
2022/03/15 09:28:01;;;;;;;16.63;9.93;;;8.00;99.90;;;;;;5054450;28;20229;-67
2022/03/15 09:30:30;;;;;;;21.33;10.67;;;8.00;99.90;;;;;;5054981;28;20209;-66
2022/03/15 09:32:59;;;;;;;18.37;9.33;;;8.10;99.90;;;;;;5054429;28;20223;-67
2022/03/15 09:35:26;;;;;;;16.00;9.17;;;8.10;99.90;;;;;;5054894;28;20205;-67
2022/03/15 09:37:53;;;;;;;20.57;9.63;;;8.20;99.90;;;;;;5054629;28;20240;-66
2022/03/15 09:40:25;;;;;;;20.27;10.43;;;8.30;99.90;;;;;;5054412;28;20197;-68
2022/03/15 09:42:57;;;;;;;23.50;11.53;;;8.30;99.90;;;;;;5054698;28;20267;-67
2022/03/15 09:45:24;;;;;;;22.23;12.50;;;8.40;99.90;;;;;;5054577;28;20194;-67
2022/03/15 09:47:57;;;;;;;27.33;13.57;;;8.40;99.90;;;;;;5054709;28;20209;-67
2022/03/15 09:50:26;;;;;;;25.37;12.87;;;8.50;99.50;;;;;;5054847;28;20607;-66
2022/03/15 09:52:56;;;;;;;25.13;12.90;;;8.60;99.60;;;;;;5054123;28;20244;-66
2022/03/15 09:55:24;;;;;;;23.70;12.97;;;8.60;99.90;;;;;;5054505;28;20209;-66
2022/03/15 09:57:52;;;;;;;27.70;14.73;;;8.70;99.40;;;;;;5054212;28;20209;-66
2022/03/15 10:00:20;;;;;;;30.33;14.57;;;8.70;99.20;;;;;;5054094;28;20201;-66
2022/03/15 10:02:48;;;;;;;27.57;14.23;;;8.70;99.00;;;;;;5054376;28;20548;-66
2022/03/15 10:05:15;;;;;;;19.97;11.40;;;8.70;98.70;;;;;;5054170;28;20645;-67
2022/03/15 10:07:44;;;;;;;18.60;10.43;;;8.70;98.50;;;;;;5054314;28;20217;-65
2022/03/15 10:10:15;;;;;;;14.13;9.30;;;8.80;98.40;;;;;;5053733;28;20214;-66
2022/03/15 10:12:42;;;;;;;16.67;9.73;;;8.90;97.90;;;;;;5054198;28;20448;-65
2022/03/15 10:15:16;;;;;;;15.90;9.60;;;8.90;98.00;;;;;;5054098;28;20569;-66
2022/03/15 10:17:48;;;;;;;19.17;10.90;;;9.00;97.10;;;;;;5054288;28;20194;-69
2022/03/15 10:20:18;;;;;;;19.60;9.97;;;9.00;96.00;;;;;;5053614;28;20291;-66
2022/03/15 10:22:55;;;;;;;17.93;9.50;;;9.10;95.00;;;;;;5053880;28;20683;-66
2022/03/15 10:25:23;;;;;;;22.93;10.60;;;9.10;95.40;;;;;;5054012;28;20555;-67
2022/03/15 10:27:58;;;;;;;23.37;11.60;;;9.10;95.50;;;;;;5053493;28;20225;-66
2022/03/15 10:30:27;;;;;;;22.10;12.87;;;9.10;95.70;;;;;;5053601;28;20219;-67
2022/03/15 10:32:55;;;;;;;24.27;11.87;;;9.20;95.40;;;;;;5053325;28;20243;-65
2022/03/15 10:35:25;;;;;;;21.43;11.17;;;9.20;95.40;;;;;;5053527;28;20209;-66
2022/03/15 10:37:55;;;;;;;18.13;10.27;;;9.20;95.30;;;;;;5052963;28;20244;-65
2022/03/15 10:40:33;;;;;;;25.80;12.30;;;9.20;95.00;;;;;;5053463;28;20554;-67
2022/03/15 10:43:05;;;;;;;20.60;11.60;;;9.30;94.70;;;;;;5053606;28;20545;-68
2022/03/15 10:45:32;;;;;;;22.47;12.13;;;9.30;94.60;;;;;;5053430;28;20285;-66
2022/03/15 10:47:59;;;;;;;25.07;11.43;;;9.30;94.60;;;;;;5053403;28;20237;-66
2022/03/15 10:50:29;;;;;;;21.13;11.50;;;9.30;94.70;;;;;;5053443;28;20724;-66
2022/03/15 10:52:58;;;;;;;22.37;11.80;;;9.30;94.80;;;;;;5052967;28;20210;-67
2022/03/15 10:55:28;;;;;;;16.90;10.67;;;9.30;94.70;;;;;;5053159;28;20212;-67
2022/03/15 10:57:57;;;;;;;17.87;10.50;;;9.40;94.80;;;;;;5052994;28;20190;-66
2022/03/15 11:00:26;;;;;;;22.20;11.37;;;9.40;94.70;;;;;;5052954;28;20232;-65
2022/03/15 11:02:54;;;;;;;19.47;10.53;;;9.50;94.60;;;;;;5052769;28;20205;-66
2022/03/15 11:05:29;;;;;;;18.67;9.30;;;9.50;94.50;;;;;;5052964;28;20216;-66
2022/03/15 11:07:59;;;;;;;16.47;9.17;;;9.60;94.30;;;;;;5052704;28;20205;-66
2022/03/15 11:10:26;;;;;;;15.03;9.83;;;9.60;94.00;;;;;;5052847;28;20201;-66
2022/03/15 11:12:58;;;;;;;15.53;9.30;;;9.70;93.60;;;;;;5052631;28;20205;-67
2022/03/15 11:15:30;;;;;;;16.03;8.97;;;9.70;93.20;;;;;;5052763;28;20205;-67
2022/03/15 11:17:59;;;;;;;15.30;8.93;;;9.70;93.50;;;;;;5052973;28;20690;-67
2022/03/15 11:20:28;;;;;;;15.73;8.63;;;9.70;93.40;;;;;;5052684;28;20212;-67
2022/03/15 11:23:01;;;;;;;13.70;8.63;;;9.80;93.20;;;;;;5052722;28;20598;-67
2022/03/15 11:25:34;;;;;;;12.37;8.47;;;9.80;93.00;;;;;;5052951;28;20612;-66
2022/03/15 11:28:04;;;;;;;13.47;8.47;;;9.80;92.40;;;;;;5052546;28;20208;-65
2022/03/15 11:30:32;;;;;;;12.50;8.10;;;9.80;92.30;;;;;;5052421;28;20216;-66
2022/03/15 11:33:02;;;;;;;14.13;8.13;;;9.80;92.60;;;;;;5051559;28;20307;-67
2022/03/15 11:35:31;;;;;;;14.40;8.40;;;9.90;92.30;;;;;;5052511;28;20251;-66
2022/03/15 11:38:02;;;;;;;13.87;8.23;;;9.90;92.40;;;;;;5052123;28;20251;-66
2022/03/15 11:40:29;;;;;;;14.50;8.83;;;9.90;92.60;;;;;;5052652;28;20193;-66
2022/03/15 11:43:11;;;;;;;12.97;8.67;;;10.00;92.40;;;;;;5052127;28;20209;-66
2022/03/15 11:45:41;;;;;;;13.83;9.10;;;10.00;92.60;;;;;;5052591;28;20196;-67
2022/03/15 11:48:16;;;;;;;17.83;9.60;;;10.10;92.30;;;;;;5052533;28;20197;-66
2022/03/15 11:50:53;;;;;;;14.30;8.73;;;10.10;92.00;;;;;;5052391;28;20189;-67
2022/03/15 11:53:33;;;;;;;14.83;9.60;;;10.10;91.90;;;;;;5052244;28;20543;-66
2022/03/15 11:56:07;;;;;;;16.60;9.57;;;10.00;91.80;;;;;;5052324;28;20557;-67
2022/03/15 11:58:34;;;;;;;16.10;9.20;;;10.10;92.10;;;;;;5052403;28;20607;-67
2022/03/15 12:01:10;;;;;;;15.03;9.63;;;10.10;92.00;;;;;;5051828;28;20202;-67
2022/03/15 12:03:47;;;;;;;13.77;9.00;;;10.10;92.00;;;;;;5051747;28;20186;-66
2022/03/15 12:06:19;;;;;;;18.07;9.40;;;10.20;92.30;;;;;;5051875;28;20203;-66
2022/03/15 12:08:56;;;;;;;16.70;9.57;;;10.20;91.90;;;;;;5052047;28;20630;-67
2022/03/15 12:11:28;;;;;;;15.50;9.70;;;10.20;91.70;;;;;;5052168;28;20189;-67
2022/03/15 12:14:03;;;;;;;16.83;10.07;;;10.20;91.90;;;;;;5051444;28;20237;-67
2022/03/15 12:16:36;;;;;;;14.63;9.87;;;10.20;91.80;;;;;;5052072;28;20193;-67
2022/03/15 12:19:15;;;;;;;18.47;11.03;;;10.30;91.80;;;;;;5052086;28;20620;-65
2022/03/15 12:21:49;;;;;;;17.37;10.40;;;10.30;91.70;;;;;;5051649;28;20185;-68
2022/03/15 12:24:20;;;;;;;15.80;10.50;;;10.30;91.70;;;;;;5051741;28;20200;-66
2022/03/15 12:26:59;;;;;;;15.80;6.63;;;10.30;91.70;;;;;;5051517;28;20221;-66
2022/03/15 12:29:27;;;;;;;8.53;5.03;;;10.30;91.70;;;;;;5051944;28;20539;-67
2022/03/15 12:31:56;;;;;;;8.83;5.53;;;10.30;91.80;;;;;;5051377;28;20259;-68
2022/03/15 12:34:24;;;;;;;7.90;4.90;;;10.30;91.60;;;;;;5051487;28;20263;-65
2022/03/15 12:36:53;;;;;;;8.30;4.60;;;10.20;90.80;;;;;;5051253;28;20201;-65
2022/03/15 12:39:24;;;;;;;9.30;4.80;;;10.20;91.10;;;;;;5051423;28;20728;-67
2022/03/15 12:42:05;;;;;;;7.97;4.27;;;10.10;90.70;;;;;;5051741;28;20225;-66